Terminal Aerodrome Forecast
Issued by NWS

Home | Current Version | Previous Version | Graphics & Text | Print | Product List | Glossary On
Versions: 1 2 3 4 5 6 7 8 9 10 11 12 13 14 15 16 17 18 19 20
000
FTUS43 KMPX 161000 AAA
TAFAXN
TAF AMD
KAXN 161004Z 1610/1706 12014G20KT 3SM -SN OVC010
     FM161100 09020G27KT 3SM -SN OVC010
     FM161500 08022G29KT 1 1/2SM -SN OVC008
     FM161900 06018G23KT 3/4SM -SN BR VV005
     FM162300 03018G24KT 3SM -SN OVC010
     FM170300 01015G21KT 5SM -SN OVC020=

USA.gov is the U.S. government's official web portal to all federal, state and local government web resources and services.